createdAt,value
2018-07-13T00:00:12.755Z,1.17
2018-07-13T00:02:42.043Z,1.13
2018-07-13T00:05:11.282Z,0.90
2018-07-13T00:07:40.487Z,0.53
2018-07-13T00:10:09.717Z,0.87
2018-07-13T00:12:38.921Z,0.80
2018-07-13T00:15:11.141Z,1.20
2018-07-13T00:17:40.374Z,0.60
2018-07-13T00:20:09.624Z,0.63
2018-07-13T00:22:38.845Z,0.83
2018-07-13T00:25:08.095Z,0.90
2018-07-13T00:27:37.303Z,0.90
2018-07-13T00:30:06.504Z,0.90
2018-07-13T00:32:35.673Z,0.53
2018-07-13T00:35:04.881Z,0.80
2018-07-13T00:37:34.100Z,0.93
2018-07-13T00:40:03.349Z,0.70
2018-07-13T00:42:32.354Z,0.93
2018-07-13T00:45:01.600Z,0.63
2018-07-13T00:47:30.815Z,0.70
2018-07-13T00:50:00.127Z,1.30
2018-07-13T00:52:29.442Z,1.20
2018-07-13T00:54:58.705Z,0.70
2018-07-13T00:57:27.977Z,1.47
2018-07-13T00:59:57.278Z,0.80
2018-07-13T01:02:26.457Z,1.37
2018-07-13T01:04:55.645Z,0.97
2018-07-13T01:07:24.824Z,0.60
2018-07-13T01:09:54.003Z,1.10
2018-07-13T01:12:23.194Z,0.70
2018-07-13T01:14:52.442Z,0.90
2018-07-13T01:17:24.147Z,1.10
2018-07-13T01:19:53.350Z,1.00
2018-07-13T01:22:22.536Z,1.20
2018-07-13T01:24:51.746Z,0.80
2018-07-13T01:27:20.947Z,0.80
2018-07-13T01:29:50.175Z,1.20
2018-07-13T01:32:19.372Z,0.87
2018-07-13T01:34:48.579Z,0.77
2018-07-13T01:37:17.775Z,0.83
2018-07-13T01:39:46.966Z,0.50
2018-07-13T01:42:16.188Z,0.80
2018-07-13T01:44:45.378Z,0.80
2018-07-13T01:47:14.552Z,0.80
2018-07-13T01:49:43.747Z,0.70
2018-07-13T01:52:12.959Z,0.77
2018-07-13T01:54:42.131Z,0.87
2018-07-13T01:57:11.374Z,1.80
2018-07-13T01:59:40.567Z,0.60
2018-07-13T02:02:09.783Z,1.10
2018-07-13T02:04:38.954Z,1.43
2018-07-13T02:07:08.165Z,0.70
2018-07-13T02:09:37.337Z,0.77
2018-07-13T02:12:06.566Z,0.57
2018-07-13T02:14:35.776Z,0.80
2018-07-13T02:17:05.080Z,1.10
2018-07-13T02:19:34.286Z,1.07
2018-07-13T02:22:03.507Z,0.90
2018-07-13T02:24:32.719Z,1.10
2018-07-13T02:27:01.956Z,0.97
2018-07-13T02:29:31.256Z,1.00
2018-07-13T02:32:00.504Z,1.13
2018-07-13T02:34:29.747Z,1.37
2018-07-13T02:36:59.009Z,0.90
2018-07-13T02:39:28.223Z,1.37
2018-07-13T02:41:57.491Z,0.73
2018-07-13T02:44:26.698Z,0.67
2018-07-13T02:46:55.962Z,0.80
2018-07-13T02:49:25.185Z,0.60
2018-07-13T02:51:54.404Z,0.80
2018-07-13T02:54:23.684Z,0.50
2018-07-13T02:56:52.939Z,1.20
2018-07-13T02:59:22.159Z,1.17
2018-07-13T03:01:51.398Z,0.63
2018-07-13T03:04:20.637Z,0.83
2018-07-13T03:06:49.882Z,1.40
2018-07-13T03:09:19.136Z,1.17
2018-07-13T03:11:48.365Z,1.10
2018-07-13T03:14:17.646Z,0.63
2018-07-13T03:16:46.850Z,0.87
2018-07-13T03:19:16.055Z,1.27
2018-07-13T03:21:45.279Z,0.93
2018-07-13T03:24:14.519Z,0.53
2018-07-13T03:26:43.705Z,1.10
2018-07-13T03:29:12.942Z,1.07
2018-07-13T03:31:42.155Z,0.87
2018-07-13T03:34:11.396Z,0.80
2018-07-13T03:36:40.353Z,1.10
2018-07-13T03:39:09.571Z,1.20
2018-07-13T03:41:38.779Z,1.47
2018-07-13T03:44:08.148Z,1.20
2018-07-13T03:46:37.376Z,0.80
2018-07-13T03:49:07.356Z,1.23
2018-07-13T03:51:36.583Z,0.50
2018-07-13T03:54:06.298Z,0.70
2018-07-13T03:56:35.523Z,1.30
2018-07-13T03:59:04.767Z,1.00
2018-07-13T04:01:34.018Z,0.90
2018-07-13T04:04:03.642Z,1.30
2018-07-13T04:06:33.010Z,0.70
2018-07-13T04:09:02.183Z,0.80
2018-07-13T04:11:31.389Z,1.00
2018-07-13T04:14:00.635Z,1.40
2018-07-13T04:16:29.876Z,0.90
2018-07-13T04:18:59.118Z,1.37
2018-07-13T04:21:28.365Z,1.27
2018-07-13T04:23:57.407Z,1.10
2018-07-13T04:26:26.662Z,1.07
2018-07-13T04:28:55.703Z,1.87
2018-07-13T04:31:24.912Z,1.23
2018-07-13T04:33:54.157Z,1.17
2018-07-13T04:36:23.375Z,1.37
2018-07-13T04:38:52.624Z,1.00
2018-07-13T04:41:21.842Z,1.40
2018-07-13T04:43:51.122Z,0.67
2018-07-13T04:46:20.396Z,1.30
2018-07-13T04:48:49.595Z,0.87
2018-07-13T04:51:18.838Z,1.27
2018-07-13T04:53:48.140Z,1.23
2018-07-13T04:56:17.416Z,1.43
2018-07-13T04:58:46.687Z,0.83
2018-07-13T05:01:16.001Z,1.30
2018-07-13T05:03:45.250Z,1.83
2018-07-13T05:06:14.517Z,2.30
2018-07-13T05:08:43.779Z,1.90
2018-07-13T05:11:13.064Z,2.37
2018-07-13T05:13:42.286Z,2.43
2018-07-13T05:16:11.586Z,1.90
2018-07-13T05:18:40.799Z,2.37
2018-07-13T05:21:10.137Z,2.43
2018-07-13T05:23:39.382Z,2.40
2018-07-13T05:26:08.883Z,2.60
2018-07-13T05:28:38.147Z,2.27
2018-07-13T05:31:07.436Z,2.73
2018-07-13T05:33:36.697Z,2.60
2018-07-13T05:36:06.018Z,2.47
2018-07-13T05:38:35.272Z,2.30
2018-07-13T05:41:04.522Z,2.87
2018-07-13T05:43:33.846Z,2.07
2018-07-13T05:46:03.174Z,2.53
2018-07-13T05:48:32.635Z,2.37
2018-07-13T05:51:01.890Z,2.00
2018-07-13T05:53:31.594Z,2.23
2018-07-13T05:56:00.967Z,2.20
2018-07-13T05:58:30.209Z,1.57
2018-07-13T06:00:59.631Z,1.80
2018-07-13T06:03:28.923Z,1.93
2018-07-13T06:05:58.320Z,2.03
2018-07-13T06:08:28.756Z,2.03
2018-07-13T06:10:58.387Z,1.60
2018-07-13T06:13:27.855Z,2.45
2018-07-13T06:15:57.369Z,2.05
2018-07-13T06:18:26.761Z,2.05
2018-07-13T06:20:56.046Z,1.92
2018-07-13T06:23:25.363Z,2.02
2018-07-13T06:25:54.681Z,1.75
2018-07-13T06:28:24.113Z,1.90
2018-07-13T06:30:53.422Z,2.40
2018-07-13T06:33:22.912Z,1.82
2018-07-13T06:35:51.925Z,1.77
2018-07-13T06:38:21.410Z,1.80
2018-07-13T06:40:51.697Z,1.67
2018-07-13T06:43:21.193Z,1.82
2018-07-13T06:45:50.520Z,1.67
2018-07-13T06:48:19.821Z,1.82
2018-07-13T06:50:49.233Z,1.65
2018-07-13T06:53:18.524Z,1.67
2018-07-13T06:55:47.793Z,1.57
2018-07-13T06:58:34.063Z,2.02
2018-07-13T07:01:06.384Z,1.85
2018-07-13T07:04:39.876Z,2.07
2018-07-13T07:07:14.419Z,1.47
2018-07-13T07:09:48.880Z,1.77
2018-07-13T07:12:33.323Z,2.03
2018-07-13T07:15:02.678Z,1.73
2018-07-13T07:17:32.026Z,1.90
2018-07-13T07:20:01.480Z,1.73
2018-07-13T07:22:30.917Z,2.30
2018-07-13T07:25:00.213Z,1.97
2018-07-13T07:27:29.491Z,1.37
2018-07-13T07:29:58.474Z,1.73
2018-07-13T07:32:27.775Z,1.10
2018-07-13T07:34:57.092Z,1.30
2018-07-13T07:37:26.480Z,1.43
2018-07-13T07:39:55.806Z,1.13
2018-07-13T07:42:25.144Z,1.40
2018-07-13T07:44:54.468Z,1.50
2018-07-13T07:47:23.829Z,1.30
2018-07-13T07:49:53.323Z,1.47
2018-07-13T07:52:22.583Z,1.07
2018-07-13T07:54:51.987Z,1.50
2018-07-13T07:57:21.390Z,1.40
2018-07-13T07:59:50.793Z,1.10
2018-07-13T08:02:20.115Z,1.37
2018-07-13T08:04:50.513Z,1.30
2018-07-13T08:07:19.943Z,1.50
2018-07-13T08:09:49.130Z,1.40
2018-07-13T08:12:18.390Z,1.40
2018-07-13T08:14:47.750Z,1.47
2018-07-13T08:17:16.808Z,1.33
2018-07-13T08:19:45.903Z,1.23
2018-07-13T08:22:24.577Z,1.20
2018-07-13T08:24:57.391Z,1.57
2018-07-13T08:27:32.985Z,1.70
2018-07-13T08:30:02.600Z,1.30
2018-07-13T08:32:31.969Z,1.50
2018-07-13T08:35:01.314Z,1.13
2018-07-13T08:37:30.706Z,1.10
2018-07-13T08:40:00.032Z,1.03
2018-07-13T08:42:29.437Z,1.40
2018-07-13T08:44:58.937Z,1.10
2018-07-13T08:47:28.443Z,1.23
2018-07-13T08:49:57.810Z,1.00
2018-07-13T08:52:27.164Z,1.67
2018-07-13T08:54:56.829Z,1.50
2018-07-13T08:57:26.210Z,1.57
2018-07-13T08:59:55.682Z,1.40
2018-07-13T09:02:24.875Z,1.70
2018-07-13T09:04:54.200Z,1.10
2018-07-13T09:07:23.464Z,1.50
2018-07-13T09:09:52.848Z,1.27
2018-07-13T09:12:22.142Z,1.30
2018-07-13T09:14:51.482Z,1.20
2018-07-13T09:17:20.843Z,0.80
2018-07-13T09:19:50.210Z,1.37
2018-07-13T09:22:19.494Z,1.50
2018-07-13T09:24:48.796Z,1.40
2018-07-13T09:27:18.222Z,1.20
2018-07-13T09:29:47.552Z,1.10
2018-07-13T09:32:16.973Z,0.93
2018-07-13T09:34:46.361Z,1.17
2018-07-13T09:37:15.515Z,2.00
2018-07-13T09:39:44.814Z,1.30
2018-07-13T09:42:14.065Z,1.60
2018-07-13T09:44:43.352Z,1.03
2018-07-13T09:47:12.635Z,1.23
2018-07-13T09:49:41.925Z,1.13
2018-07-13T09:52:11.237Z,1.27
2018-07-13T09:54:40.446Z,1.80
2018-07-13T09:57:09.741Z,1.10
2018-07-13T09:59:38.983Z,1.50
2018-07-13T10:02:08.327Z,1.67
2018-07-13T10:04:37.615Z,1.30
2018-07-13T10:07:07.530Z,1.43
2018-07-13T10:09:36.988Z,1.10
2018-07-13T10:12:06.341Z,1.10
2018-07-13T10:14:35.611Z,1.57
2018-07-13T10:17:05.122Z,1.30
2018-07-13T10:19:34.421Z,1.10
2018-07-13T10:22:03.853Z,1.30
2018-07-13T10:24:34.856Z,1.20
2018-07-13T10:27:04.200Z,0.90
2018-07-13T10:29:40.880Z,1.23
2018-07-13T10:32:10.234Z,1.00
2018-07-13T10:34:39.571Z,1.10
2018-07-13T10:37:09.122Z,1.43
2018-07-13T10:39:38.511Z,1.37
2018-07-13T10:42:07.918Z,0.83
2018-07-13T10:44:37.205Z,1.20
2018-07-13T10:47:06.726Z,1.03
2018-07-13T10:49:36.074Z,1.23
2018-07-13T10:52:05.532Z,1.80
2018-07-13T10:54:34.874Z,1.53
2018-07-13T10:57:04.251Z,1.30
2018-07-13T10:59:33.582Z,1.30
2018-07-13T11:02:02.810Z,1.03
2018-07-13T11:04:31.870Z,1.50
2018-07-13T11:07:02.244Z,1.90
2018-07-13T11:09:31.591Z,1.47
2018-07-13T11:12:00.930Z,1.80
2018-07-13T11:14:30.271Z,2.10
2018-07-13T11:16:59.799Z,1.53
2018-07-13T11:19:29.256Z,1.77
2018-07-13T11:21:58.668Z,1.73
2018-07-13T11:24:27.788Z,1.85
2018-07-13T11:26:56.891Z,1.85
2018-07-13T11:29:26.232Z,2.05
2018-07-13T11:31:55.871Z,1.82
2018-07-13T11:34:25.266Z,2.33
2018-07-13T11:36:54.582Z,1.50
2018-07-13T11:39:23.915Z,1.60
2018-07-13T11:41:53.187Z,1.50
2018-07-13T11:44:22.494Z,1.75
2018-07-13T11:46:51.818Z,1.50
2018-07-13T11:49:21.113Z,1.70
2018-07-13T11:51:50.567Z,1.82
2018-07-13T11:54:19.931Z,2.50
2018-07-13T11:56:49.215Z,1.40
2018-07-13T11:59:18.528Z,1.67
2018-07-13T12:01:48.404Z,1.80
2018-07-13T12:04:18.136Z,2.12
2018-07-13T12:06:47.413Z,1.87
2018-07-13T12:09:17.066Z,1.95
2018-07-13T12:11:46.292Z,1.37
2018-07-13T12:14:15.469Z,1.90
2018-07-13T12:16:45.009Z,1.80
2018-07-13T12:19:14.245Z,2.08
2018-07-13T12:21:43.671Z,1.92
2018-07-13T12:24:12.940Z,2.27
2018-07-13T12:26:42.278Z,2.12
2018-07-13T12:29:11.602Z,2.20
2018-07-13T12:31:40.943Z,1.98
2018-07-13T12:34:10.398Z,1.65
2018-07-13T12:36:39.677Z,1.57
2018-07-13T12:39:09.064Z,1.85
2018-07-13T12:41:38.310Z,1.42
2018-07-13T12:44:07.703Z,1.80
2018-07-13T12:46:37.028Z,1.47
2018-07-13T12:49:06.291Z,2.02
2018-07-13T12:51:35.549Z,2.17
2018-07-13T12:54:04.986Z,1.87
2018-07-13T12:56:34.252Z,1.72
2018-07-13T12:59:03.559Z,1.72
2018-07-13T13:01:32.882Z,1.72
2018-07-13T13:04:02.199Z,1.70
2018-07-13T13:06:31.591Z,1.82
2018-07-13T13:09:00.914Z,1.57
2018-07-13T13:11:30.307Z,1.87
2018-07-13T13:13:59.582Z,1.73
2018-07-13T13:16:28.912Z,1.87
2018-07-13T13:18:58.368Z,1.33
2018-07-13T13:21:27.610Z,2.00
2018-07-13T13:23:56.875Z,1.50
2018-07-13T13:26:25.819Z,1.63
2018-07-13T13:28:55.119Z,1.43
2018-07-13T13:31:24.366Z,1.30
2018-07-13T13:33:53.718Z,1.52
2018-07-13T13:36:23.006Z,1.87
2018-07-13T13:38:52.291Z,1.62
2018-07-13T13:41:21.606Z,1.15
2018-07-13T13:43:50.894Z,1.22
2018-07-13T13:46:20.210Z,1.57
2018-07-13T13:48:49.525Z,1.62
2018-07-13T13:51:18.808Z,1.80
2018-07-13T13:53:48.064Z,1.40
2018-07-13T13:56:17.664Z,1.70
2018-07-13T13:58:46.744Z,1.75
2018-07-13T14:01:16.110Z,1.82
2018-07-13T14:03:45.520Z,1.32
2018-07-13T14:06:14.932Z,1.30
2018-07-13T14:08:44.401Z,1.45
2018-07-13T14:11:13.762Z,1.87
2018-07-13T14:13:43.166Z,1.85
2018-07-13T14:16:12.543Z,1.25
2018-07-13T14:18:42.017Z,1.15
2018-07-13T14:21:11.380Z,1.85
2018-07-13T14:23:40.772Z,1.45
2018-07-13T14:26:10.060Z,1.40
2018-07-13T14:28:39.110Z,1.22
2018-07-13T14:31:08.504Z,1.72
2018-07-13T14:33:37.884Z,1.62
2018-07-13T14:36:07.158Z,1.30
2018-07-13T14:38:36.606Z,1.62
2018-07-13T14:41:06.029Z,1.17
2018-07-13T14:43:35.388Z,1.67
2018-07-13T14:46:04.779Z,1.47
2018-07-13T14:48:34.473Z,1.45
2018-07-13T14:51:03.807Z,1.47
2018-07-13T14:53:33.448Z,1.15
2018-07-13T14:56:02.813Z,1.40
2018-07-13T14:58:32.185Z,1.40
2018-07-13T15:01:01.617Z,1.25
2018-07-13T15:03:30.657Z,1.00
2018-07-13T15:06:00.132Z,1.07
2018-07-13T15:08:29.325Z,1.35
2018-07-13T15:10:58.697Z,1.37
2018-07-13T15:13:28.021Z,1.07
2018-07-13T15:15:57.374Z,1.40
2018-07-13T15:18:26.691Z,1.30
2018-07-13T15:20:56.078Z,1.82
2018-07-13T15:23:25.483Z,1.30
2018-07-13T15:25:54.861Z,1.35
2018-07-13T15:28:24.287Z,1.10
2018-07-13T15:30:53.636Z,1.40
2018-07-13T15:33:22.904Z,1.70
2018-07-13T15:35:52.243Z,1.20
2018-07-13T15:38:21.571Z,1.45
2018-07-13T15:40:50.982Z,1.27
2018-07-13T15:43:20.332Z,1.60
2018-07-13T15:45:49.605Z,1.50
2018-07-13T15:48:19.071Z,1.70
2018-07-13T15:50:48.907Z,1.20
2018-07-13T15:53:18.303Z,1.47
2018-07-13T15:55:52.934Z,1.70
2018-07-13T15:58:22.308Z,1.45
2018-07-13T16:00:51.654Z,1.35
2018-07-13T16:03:21.168Z,1.85
2018-07-13T16:05:50.608Z,1.00
2018-07-13T16:08:20.223Z,1.62
2018-07-13T16:10:49.634Z,1.10
2018-07-13T16:13:18.851Z,1.02
2018-07-13T16:15:48.159Z,1.15
2018-07-13T16:18:17.464Z,1.55
2018-07-13T16:20:46.851Z,1.35
2018-07-13T16:23:16.300Z,1.30
2018-07-13T16:25:45.675Z,1.20
2018-07-13T16:28:15.028Z,1.30
2018-07-13T16:30:44.363Z,1.30
2018-07-13T16:33:13.701Z,1.27
2018-07-13T16:35:43.001Z,1.15
2018-07-13T16:38:12.294Z,1.22
2018-07-13T16:40:41.651Z,1.30
2018-07-13T16:43:10.985Z,1.30
2018-07-13T16:45:40.337Z,1.30
2018-07-13T16:48:09.669Z,1.12
2018-07-13T16:50:39.038Z,1.37
2018-07-13T16:53:08.319Z,1.60
2018-07-13T16:55:37.711Z,1.13
2018-07-13T16:58:07.150Z,1.17
2018-07-13T17:00:36.306Z,1.40
2018-07-13T17:03:05.746Z,1.30
2018-07-13T17:05:35.027Z,1.25
2018-07-13T17:08:04.377Z,1.50
2018-07-13T17:10:33.648Z,1.20
2018-07-13T17:13:02.998Z,0.80
2018-07-13T17:15:32.254Z,1.20
2018-07-13T17:18:01.299Z,1.30
2018-07-13T17:20:30.700Z,1.25
2018-07-13T17:22:59.888Z,1.25
2018-07-13T17:25:28.905Z,0.90
2018-07-13T17:27:58.189Z,1.37
2018-07-13T17:30:27.573Z,1.12
2018-07-13T17:32:56.905Z,1.60
2018-07-13T17:35:26.230Z,1.30
2018-07-13T17:37:55.764Z,1.30
2018-07-13T17:40:25.119Z,1.15
2018-07-13T17:42:55.177Z,1.32
2018-07-13T17:45:24.516Z,0.90
2018-07-13T17:47:53.774Z,1.37
2018-07-13T17:50:23.100Z,1.42
2018-07-13T17:52:52.517Z,1.10
2018-07-13T17:55:21.818Z,1.37
2018-07-13T17:57:51.140Z,1.32
2018-07-13T18:00:20.538Z,1.37
2018-07-13T18:02:49.896Z,1.15
2018-07-13T18:05:19.213Z,1.40
2018-07-13T18:07:48.527Z,1.50
2018-07-13T18:10:17.920Z,1.57
2018-07-13T18:12:47.378Z,1.10
2018-07-13T18:15:16.650Z,1.40
2018-07-13T18:17:46.426Z,1.20
2018-07-13T18:20:15.747Z,1.53
2018-07-13T18:22:45.073Z,1.10
2018-07-13T18:25:14.548Z,1.40
2018-07-13T18:27:44.630Z,1.80
2018-07-13T18:30:14.040Z,1.83
2018-07-13T18:32:43.543Z,1.40
2018-07-13T18:35:12.891Z,1.10
2018-07-13T18:37:42.194Z,1.30
2018-07-13T18:40:11.493Z,1.40
2018-07-13T18:42:41.023Z,1.43
2018-07-13T18:45:10.374Z,1.53
2018-07-13T18:47:44.097Z,1.30
2018-07-13T18:50:13.408Z,1.57
2018-07-13T18:52:42.754Z,1.40
2018-07-13T18:55:11.823Z,1.30
2018-07-13T18:57:44.120Z,1.57
2018-07-13T19:00:20.307Z,1.37
2018-07-13T19:02:50.580Z,1.20
2018-07-13T19:05:19.954Z,1.90
2018-07-13T19:07:49.310Z,1.13
2018-07-13T19:10:18.633Z,1.50
2018-07-13T19:12:47.934Z,1.33
2018-07-13T19:15:17.550Z,2.03
2018-07-13T19:17:47.085Z,1.27
2018-07-13T19:20:16.445Z,1.50
2018-07-13T19:22:45.897Z,1.67
2018-07-13T19:25:15.042Z,1.30
2018-07-13T19:27:44.374Z,1.90
2018-07-13T19:30:13.687Z,1.43
2018-07-13T19:32:42.984Z,1.60
2018-07-13T19:35:12.456Z,1.43
2018-07-13T19:37:41.825Z,1.40
2018-07-13T19:40:11.778Z,1.50
2018-07-13T19:42:42.606Z,1.53
2018-07-13T19:45:15.477Z,1.33
2018-07-13T19:47:46.670Z,1.30
2018-07-13T19:50:21.004Z,1.50
2018-07-13T19:52:51.090Z,1.60
2018-07-13T19:55:21.364Z,1.33
2018-07-13T19:57:51.612Z,1.47
2018-07-13T20:00:25.123Z,1.47
2018-07-13T20:02:56.589Z,1.23
2018-07-13T20:05:26.917Z,1.40
2018-07-13T20:07:57.692Z,1.77
2018-07-13T20:10:27.749Z,1.40
2018-07-13T20:15:34.607Z,1.57
2018-07-13T20:18:13.053Z,2.07
2018-07-13T20:20:45.519Z,1.67
2018-07-13T20:23:16.688Z,1.20
2018-07-13T20:25:47.672Z,1.10
2018-07-13T20:28:18.544Z,1.93
2018-07-13T20:30:49.305Z,1.40
2018-07-13T20:33:20.123Z,1.50
2018-07-13T20:35:57.694Z,1.63
2018-07-13T20:38:27.824Z,1.60
2018-07-13T20:40:58.073Z,2.13
2018-07-13T20:43:28.570Z,1.23
2018-07-13T20:46:00.929Z,1.90
2018-07-13T20:48:35.319Z,1.43
2018-07-13T20:51:05.517Z,1.77
2018-07-13T20:53:35.707Z,1.30
2018-07-13T20:56:06.401Z,1.10
2018-07-13T20:58:37.519Z,1.67
2018-07-13T21:01:07.911Z,1.63
2018-07-13T21:03:38.292Z,1.20
2018-07-13T21:06:08.428Z,1.77
2018-07-13T21:08:39.321Z,1.37
2018-07-13T21:11:09.864Z,0.93
2018-07-13T21:13:40.034Z,1.57
2018-07-13T21:16:11.064Z,1.80
2018-07-13T21:18:42.512Z,1.77
2018-07-13T21:21:13.267Z,1.10
2018-07-13T21:23:44.044Z,1.63
2018-07-13T21:26:19.207Z,2.13
2018-07-13T21:28:50.137Z,1.30
2018-07-13T21:31:22.864Z,1.47
2018-07-13T21:33:53.194Z,1.57
2018-07-13T21:36:28.924Z,1.20
2018-07-13T21:39:00.070Z,1.63
2018-07-13T21:41:33.017Z,1.80
2018-07-13T21:44:03.620Z,1.20
2018-07-13T21:46:33.646Z,1.13
2018-07-13T21:49:03.758Z,1.27
2018-07-13T21:51:33.603Z,1.23
2018-07-13T21:54:04.597Z,2.53
2018-07-13T21:56:36.040Z,5.30
2018-07-13T21:59:06.677Z,2.90
2018-07-13T22:01:36.736Z,2.53
2018-07-13T22:04:10.775Z,1.63
2018-07-13T22:06:41.792Z,1.53
2018-07-13T22:09:12.101Z,1.63
2018-07-13T22:11:50.057Z,1.53
2018-07-13T22:14:21.683Z,1.37
2018-07-13T22:16:54.955Z,1.60
2018-07-13T22:19:25.905Z,1.70
2018-07-13T22:22:01.069Z,1.93
2018-07-13T22:24:31.483Z,1.27
2018-07-13T22:27:02.392Z,1.33
2018-07-13T22:29:33.744Z,1.20
2018-07-13T22:32:08.469Z,1.33
2018-07-13T22:34:38.740Z,1.33
2018-07-13T22:37:08.615Z,1.40
2018-07-13T22:39:39.045Z,0.90
2018-07-13T22:42:09.042Z,1.07
2018-07-13T22:44:39.531Z,1.20
2018-07-13T22:47:09.666Z,1.20
2018-07-13T22:49:40.876Z,1.43
2018-07-13T22:52:12.092Z,1.57
2018-07-13T22:54:43.659Z,1.13
2018-07-13T22:57:14.776Z,0.93
2018-07-13T23:00:07.048Z,1.30
2018-07-13T23:02:38.136Z,1.70
2018-07-13T23:05:08.800Z,1.17
2018-07-13T23:07:39.185Z,1.20
2018-07-13T23:10:09.754Z,0.90
2018-07-13T23:12:47.134Z,1.53
2018-07-13T23:15:24.126Z,2.00
2018-07-13T23:17:54.710Z,1.70
2018-07-13T23:20:27.533Z,1.77
2018-07-13T23:23:08.496Z,1.73
2018-07-13T23:25:38.831Z,1.10
2018-07-13T23:28:09.568Z,1.67
2018-07-13T23:30:43.760Z,1.27
2018-07-13T23:33:13.937Z,1.57
2018-07-13T23:35:44.191Z,1.67
2018-07-13T23:38:16.166Z,1.57
2018-07-13T23:40:46.829Z,1.07
2018-07-13T23:43:17.534Z,1.37
2018-07-13T23:45:48.744Z,1.40
2018-07-13T23:48:24.685Z,1.73
2018-07-13T23:50:55.381Z,1.50
2018-07-13T23:53:25.779Z,1.87
2018-07-13T23:55:56.562Z,1.17
2018-07-13T23:58:29.978Z,1.47
